Terminal Aerodrome Forecast
Issued by NWS

Home | Current Version | Previous Version | Text Only | Print | Product List | Glossary On
Versions: 1 2 3 4 5 6 7 8 9 10 11 12 13 14 15 16 17 18 19 20 21 22 23 24 25 26 27 28
000
FTUS43 KDVN 220500
TAFCID
TAF
KCID 220520Z 2206/2306 13005KT 5SM BR VCTS BKN060CB
     FM221000 VRB03KT 2SM BR SCT008 BKN015
     FM221400 18006KT P6SM BKN050
     FM230100 VRB02KT P6SM BKN150=

USA.gov is the U.S. government's official web portal to all federal, state and local government web resources and services.